sensor_id;sensor_type;location;lat;lon;timestamp;P1;durP1;ratioP1;P2;durP2;ratioP2
76094;SDS011;64821;13.710;100.604;2024-01-16T00:00:04;16.13;;;11.77;;
76094;SDS011;64821;13.710;100.604;2024-01-16T00:01:09;18.45;;;12.73;;
76094;SDS011;64821;13.710;100.604;2024-01-16T00:02:12;17.10;;;12.10;;
76094;SDS011;64821;13.710;100.604;2024-01-16T00:03:16;17.13;;;11.07;;
76094;SDS011;64821;13.710;100.604;2024-01-16T00:04:20;17.13;;;12.32;;
76094;SDS011;64821;13.710;100.604;2024-01-16T00:05:24;16.27;;;11.10;;
76094;SDS011;64821;13.710;100.604;2024-01-16T00:06:28;19.98;;;11.90;;
76094;SDS011;64821;13.710;100.604;2024-01-16T00:07:32;17.35;;;11.50;;
76094;SDS011;64821;13.710;100.604;2024-01-16T00:08:35;16.73;;;11.45;;
76094;SDS011;64821;13.710;100.604;2024-01-16T00:09:39;17.10;;;11.43;;
76094;SDS011;64821;13.710;100.604;2024-01-16T00:10:45;17.13;;;11.07;;
76094;SDS011;64821;13.710;100.604;2024-01-16T00:11:49;16.15;;;10.82;;
76094;SDS011;64821;13.710;100.604;2024-01-16T00:12:52;17.20;;;10.93;;
76094;SDS011;64821;13.710;100.604;2024-01-16T00:13:56;17.48;;;11.45;;
76094;SDS011;64821;13.710;100.604;2024-01-16T00:15:00;17.33;;;11.60;;
76094;SDS011;64821;13.710;100.604;2024-01-16T00:16:04;15.93;;;10.77;;
76094;SDS011;64821;13.710;100.604;2024-01-16T00:17:08;15.25;;;10.77;;
76094;SDS011;64821;13.710;100.604;2024-01-16T00:18:12;17.17;;;11.13;;
76094;SDS011;64821;13.710;100.604;2024-01-16T00:19:16;16.02;;;10.68;;
76094;SDS011;64821;13.710;100.604;2024-01-16T00:20:20;17.65;;;10.77;;
76094;SDS011;64821;13.710;100.604;2024-01-16T00:21:24;15.67;;;10.13;;
76094;SDS011;64821;13.710;100.604;2024-01-16T00:22:28;17.48;;;10.93;;
76094;SDS011;64821;13.710;100.604;2024-01-16T00:23:32;16.02;;;9.82;;
76094;SDS011;64821;13.710;100.604;2024-01-16T00:24:36;13.80;;;10.05;;
76094;SDS011;64821;13.710;100.604;2024-01-16T00:25:39;15.35;;;10.52;;
76094;SDS011;64821;13.710;100.604;2024-01-16T00:26:45;16.23;;;10.60;;
76094;SDS011;64821;13.710;100.604;2024-01-16T00:27:49;17.13;;;10.55;;
76094;SDS011;64821;13.710;100.604;2024-01-16T00:28:52;18.35;;;11.10;;
76094;SDS011;64821;13.710;100.604;2024-01-16T00:29:56;17.15;;;11.07;;
76094;SDS011;64821;13.710;100.604;2024-01-16T00:31:00;18.13;;;11.55;;
76094;SDS011;64821;13.710;100.604;2024-01-16T00:32:04;15.07;;;10.63;;
76094;SDS011;64821;13.710;100.604;2024-01-16T00:33:08;18.52;;;11.15;;
76094;SDS011;64821;13.710;100.604;2024-01-16T00:34:12;17.25;;;11.45;;
76094;SDS011;64821;13.710;100.604;2024-01-16T00:35:16;14.73;;;10.13;;
76094;SDS011;64821;13.710;100.604;2024-01-16T00:36:20;14.95;;;10.55;;
76094;SDS011;64821;13.710;100.604;2024-01-16T00:37:24;18.67;;;11.23;;
76094;SDS011;64821;13.710;100.604;2024-01-16T00:38:27;18.02;;;11.20;;
76094;SDS011;64821;13.710;100.604;2024-01-16T00:39:31;19.20;;;11.60;;
76094;SDS011;64821;13.710;100.604;2024-01-16T00:40:35;21.80;;;12.38;;
76094;SDS011;64821;13.710;100.604;2024-01-16T00:41:39;16.65;;;11.57;;
76094;SDS011;64821;13.710;100.604;2024-01-16T00:42:44;16.23;;;10.77;;
76094;SDS011;64821;13.710;100.604;2024-01-16T00:43:48;16.67;;;11.63;;
76094;SDS011;64821;13.710;100.604;2024-01-16T00:44:52;16.65;;;10.70;;
76094;SDS011;64821;13.710;100.604;2024-01-16T00:45:55;14.73;;;10.15;;
76094;SDS011;64821;13.710;100.604;2024-01-16T00:46:59;18.90;;;11.60;;
76094;SDS011;64821;13.710;100.604;2024-01-16T00:48:04;17.43;;;11.77;;
76094;SDS011;64821;13.710;100.604;2024-01-16T00:49:08;17.92;;;11.55;;
76094;SDS011;64821;13.710;100.604;2024-01-16T00:50:12;20.85;;;12.68;;
76094;SDS011;64821;13.710;100.604;2024-01-16T00:51:16;17.48;;;11.65;;
76094;SDS011;64821;13.710;100.604;2024-01-16T00:52:20;18.45;;;12.82;;
76094;SDS011;64821;13.710;100.604;2024-01-16T00:53:24;16.20;;;10.60;;
76094;SDS011;64821;13.710;100.604;2024-01-16T00:54:28;17.40;;;11.25;;
76094;SDS011;64821;13.710;100.604;2024-01-16T00:55:32;15.93;;;10.82;;
76094;SDS011;64821;13.710;100.604;2024-01-16T00:56:36;20.23;;;13.00;;
76094;SDS011;64821;13.710;100.604;2024-01-16T00:57:40;17.52;;;10.82;;
76094;SDS011;64821;13.710;100.604;2024-01-16T00:58:45;17.73;;;11.57;;
76094;SDS011;64821;13.710;100.604;2024-01-16T01:01:13;15.85;;;10.75;;
76094;SDS011;64821;13.710;100.604;2024-01-16T01:01:47;17.05;;;11.07;;
76094;SDS011;64821;13.710;100.604;2024-01-16T01:02:50;17.55;;;11.20;;
76094;SDS011;64821;13.710;100.604;2024-01-16T01:03:54;16.77;;;12.18;;
76094;SDS011;64821;13.710;100.604;2024-01-16T01:04:58;19.07;;;12.80;;
76094;SDS011;64821;13.710;100.604;2024-01-16T01:06:02;19.13;;;12.18;;
76094;SDS011;64821;13.710;100.604;2024-01-16T01:07:06;20.67;;;12.70;;
76094;SDS011;64821;13.710;100.604;2024-01-16T01:08:10;16.02;;;11.30;;
76094;SDS011;64821;13.710;100.604;2024-01-16T01:09:14;15.38;;;11.02;;
76094;SDS011;64821;13.710;100.604;2024-01-16T01:10:19;20.07;;;11.43;;
76094;SDS011;64821;13.710;100.604;2024-01-16T01:11:22;19.48;;;12.50;;
76094;SDS011;64821;13.710;100.604;2024-01-16T01:12:26;16.13;;;11.02;;
76094;SDS011;64821;13.710;100.604;2024-01-16T01:13:30;15.48;;;11.00;;
76094;SDS011;64821;13.710;100.604;2024-01-16T01:14:35;16.17;;;10.07;;
76094;SDS011;64821;13.710;100.604;2024-01-16T01:15:39;19.60;;;12.13;;
76094;SDS011;64821;13.710;100.604;2024-01-16T01:16:43;19.70;;;11.77;;
76094;SDS011;64821;13.710;100.604;2024-01-16T01:17:48;18.83;;;12.07;;
76094;SDS011;64821;13.710;100.604;2024-01-16T01:18:52;20.13;;;12.40;;
76094;SDS011;64821;13.710;100.604;2024-01-16T01:19:56;18.30;;;12.18;;
76094;SDS011;64821;13.710;100.604;2024-01-16T01:21:00;17.10;;;11.50;;
76094;SDS011;64821;13.710;100.604;2024-01-16T01:22:04;15.23;;;10.40;;
76094;SDS011;64821;13.710;100.604;2024-01-16T01:23:08;15.68;;;11.25;;
76094;SDS011;64821;13.710;100.604;2024-01-16T01:24:12;16.27;;;11.00;;
76094;SDS011;64821;13.710;100.604;2024-01-16T01:25:16;17.65;;;11.40;;
76094;SDS011;64821;13.710;100.604;2024-01-16T01:26:20;16.47;;;10.93;;
76094;SDS011;64821;13.710;100.604;2024-01-16T01:27:23;16.67;;;10.68;;
76094;SDS011;64821;13.710;100.604;2024-01-16T01:28:27;15.50;;;9.77;;
76094;SDS011;64821;13.710;100.604;2024-01-16T01:29:31;14.65;;;9.75;;
76094;SDS011;64821;13.710;100.604;2024-01-16T01:30:37;15.88;;;9.88;;
76094;SDS011;64821;13.710;100.604;2024-01-16T01:31:41;17.43;;;11.03;;
76094;SDS011;64821;13.710;100.604;2024-01-16T01:32:49;18.00;;;10.77;;
76094;SDS011;64821;13.710;100.604;2024-01-16T01:33:53;15.63;;;9.85;;
76094;SDS011;64821;13.710;100.604;2024-01-16T01:34:56;15.48;;;9.70;;
76094;SDS011;64821;13.710;100.604;2024-01-16T01:36:01;16.95;;;10.30;;
76094;SDS011;64821;13.710;100.604;2024-01-16T01:37:04;16.97;;;10.40;;
76094;SDS011;64821;13.710;100.604;2024-01-16T01:38:08;15.82;;;9.98;;
76094;SDS011;64821;13.710;100.604;2024-01-16T01:39:12;15.50;;;9.20;;
76094;SDS011;64821;13.710;100.604;2024-01-16T01:40:16;16.20;;;9.70;;
76094;SDS011;64821;13.710;100.604;2024-01-16T01:41:20;16.17;;;9.77;;
76094;SDS011;64821;13.710;100.604;2024-01-16T01:42:23;12.87;;;9.07;;
76094;SDS011;64821;13.710;100.604;2024-01-16T01:43:27;14.38;;;8.70;;
76094;SDS011;64821;13.710;100.604;2024-01-16T01:44:31;16.20;;;9.38;;
76094;SDS011;64821;13.710;100.604;2024-01-16T01:45:35;15.88;;;9.43;;
76094;SDS011;64821;13.710;100.604;2024-01-16T01:46:40;16.60;;;9.13;;
76094;SDS011;64821;13.710;100.604;2024-01-16T01:47:44;14.97;;;9.63;;
76094;SDS011;64821;13.710;100.604;2024-01-16T01:48:49;15.30;;;8.07;;
76094;SDS011;64821;13.710;100.604;2024-01-16T01:49:53;14.65;;;9.32;;
76094;SDS011;64821;13.710;100.604;2024-01-16T01:50:57;13.55;;;8.45;;
76094;SDS011;64821;13.710;100.604;2024-01-16T01:52:02;14.38;;;9.25;;
76094;SDS011;64821;13.710;100.604;2024-01-16T01:53:08;12.53;;;8.13;;
76094;SDS011;64821;13.710;100.604;2024-01-16T01:54:12;16.40;;;9.40;;
76094;SDS011;64821;13.710;100.604;2024-01-16T01:55:18;14.75;;;9.30;;
76094;SDS011;64821;13.710;100.604;2024-01-16T01:56:22;12.20;;;8.02;;
76094;SDS011;64821;13.710;100.604;2024-01-16T01:57:26;15.75;;;9.10;;
76094;SDS011;64821;13.710;100.604;2024-01-16T01:58:30;15.90;;;8.53;;
76094;SDS011;64821;13.710;100.604;2024-01-16T01:59:34;12.65;;;8.20;;
76094;SDS011;64821;13.710;100.604;2024-01-16T02:00:40;14.00;;;7.75;;
76094;SDS011;64821;13.710;100.604;2024-01-16T02:01:45;13.18;;;7.93;;
76094;SDS011;64821;13.710;100.604;2024-01-16T02:02:49;12.65;;;7.93;;
76094;SDS011;64821;13.710;100.604;2024-01-16T02:03:53;13.47;;;8.17;;
76094;SDS011;64821;13.710;100.604;2024-01-16T02:04:58;12.95;;;8.38;;
76094;SDS011;64821;13.710;100.604;2024-01-16T02:06:02;13.63;;;7.85;;
76094;SDS011;64821;13.710;100.604;2024-01-16T02:07:06;14.15;;;7.88;;
76094;SDS011;64821;13.710;100.604;2024-01-16T02:08:10;12.77;;;7.30;;
76094;SDS011;64821;13.710;100.604;2024-01-16T02:09:14;12.20;;;7.63;;
76094;SDS011;64821;13.710;100.604;2024-01-16T02:10:18;13.25;;;8.43;;
76094;SDS011;64821;13.710;100.604;2024-01-16T02:11:22;18.27;;;9.43;;
76094;SDS011;64821;13.710;100.604;2024-01-16T02:12:26;11.45;;;7.50;;
76094;SDS011;64821;13.710;100.604;2024-01-16T02:13:29;14.68;;;7.88;;
76094;SDS011;64821;13.710;100.604;2024-01-16T02:14:33;14.30;;;8.40;;
76094;SDS011;64821;13.710;100.604;2024-01-16T02:15:37;14.60;;;7.85;;
76094;SDS011;64821;13.710;100.604;2024-01-16T02:16:43;12.88;;;7.22;;
76094;SDS011;64821;13.710;100.604;2024-01-16T02:17:47;11.43;;;7.32;;
76094;SDS011;64821;13.710;100.604;2024-01-16T02:18:51;14.68;;;8.05;;
76094;SDS011;64821;13.710;100.604;2024-01-16T02:19:55;13.37;;;7.10;;
76094;SDS011;64821;13.710;100.604;2024-01-16T02:20:59;11.98;;;7.18;;
76094;SDS011;64821;13.710;100.604;2024-01-16T02:22:08;12.85;;;7.45;;
76094;SDS011;64821;13.710;100.604;2024-01-16T02:24:27;12.30;;;6.95;;
76094;SDS011;64821;13.710;100.604;2024-01-16T02:25:31;12.60;;;6.90;;
76094;SDS011;64821;13.710;100.604;2024-01-16T02:26:35;12.95;;;7.10;;
76094;SDS011;64821;13.710;100.604;2024-01-16T02:27:38;11.75;;;6.55;;
76094;SDS011;64821;13.710;100.604;2024-01-16T02:28:42;10.60;;;6.53;;
76094;SDS011;64821;13.710;100.604;2024-01-16T02:29:46;10.13;;;6.25;;
76094;SDS011;64821;13.710;100.604;2024-01-16T02:30:50;12.37;;;6.87;;
76094;SDS011;64821;13.710;100.604;2024-01-16T02:31:54;12.43;;;6.45;;
76094;SDS011;64821;13.710;100.604;2024-01-16T02:32:58;12.07;;;6.10;;
76094;SDS011;64821;13.710;100.604;2024-01-16T02:34:02;11.95;;;7.00;;
76094;SDS011;64821;13.710;100.604;2024-01-16T02:35:07;12.10;;;6.82;;
76094;SDS011;64821;13.710;100.604;2024-01-16T02:36:10;11.70;;;6.30;;
76094;SDS011;64821;13.710;100.604;2024-01-16T02:37:14;12.07;;;7.05;;
76094;SDS011;64821;13.710;100.604;2024-01-16T02:38:18;10.52;;;6.22;;
76094;SDS011;64821;13.710;100.604;2024-01-16T02:39:23;10.05;;;5.88;;
76094;SDS011;64821;13.710;100.604;2024-01-16T02:40:27;11.07;;;6.18;;
76094;SDS011;64821;13.710;100.604;2024-01-16T02:41:31;12.23;;;6.33;;
76094;SDS011;64821;13.710;100.604;2024-01-16T02:42:35;13.50;;;6.30;;
76094;SDS011;64821;13.710;100.604;2024-01-16T02:43:39;11.10;;;6.47;;
76094;SDS011;64821;13.710;100.604;2024-01-16T02:44:42;10.60;;;5.97;;
76094;SDS011;64821;13.710;100.604;2024-01-16T02:45:46;12.93;;;6.35;;
76094;SDS011;64821;13.710;100.604;2024-01-16T02:46:50;11.83;;;6.30;;
76094;SDS011;64821;13.710;100.604;2024-01-16T02:47:54;9.07;;;5.43;;
76094;SDS011;64821;13.710;100.604;2024-01-16T02:48:58;13.40;;;5.88;;
76094;SDS011;64821;13.710;100.604;2024-01-16T02:50:02;10.48;;;6.00;;
76094;SDS011;64821;13.710;100.604;2024-01-16T02:51:06;10.63;;;5.97;;
76094;SDS011;64821;13.710;100.604;2024-01-16T02:52:10;13.00;;;5.90;;
76094;SDS011;64821;13.710;100.604;2024-01-16T02:53:14;11.77;;;6.10;;
76094;SDS011;64821;13.710;100.604;2024-01-16T02:54:17;10.32;;;5.80;;
76094;SDS011;64821;13.710;100.604;2024-01-16T02:55:24;11.05;;;6.13;;
76094;SDS011;64821;13.710;100.604;2024-01-16T02:56:28;10.65;;;5.55;;
76094;SDS011;64821;13.710;100.604;2024-01-16T02:57:31;11.13;;;6.43;;
76094;SDS011;64821;13.710;100.604;2024-01-16T02:58:36;10.13;;;5.93;;
76094;SDS011;64821;13.710;100.604;2024-01-16T02:59:43;11.35;;;5.82;;
76094;SDS011;64821;13.710;100.604;2024-01-16T03:00:47;10.85;;;5.30;;
76094;SDS011;64821;13.710;100.604;2024-01-16T03:01:50;10.93;;;5.90;;
76094;SDS011;64821;13.710;100.604;2024-01-16T03:02:54;9.73;;;5.50;;
76094;SDS011;64821;13.710;100.604;2024-01-16T03:03:58;9.68;;;5.47;;
76094;SDS011;64821;13.710;100.604;2024-01-16T03:05:02;10.93;;;5.80;;
76094;SDS011;64821;13.710;100.604;2024-01-16T03:06:06;10.20;;;5.60;;
76094;SDS011;64821;13.710;100.604;2024-01-16T03:07:10;10.88;;;5.82;;
76094;SDS011;64821;13.710;100.604;2024-01-16T03:08:14;10.27;;;6.03;;
76094;SDS011;64821;13.710;100.604;2024-01-16T03:09:18;11.82;;;6.18;;
76094;SDS011;64821;13.710;100.604;2024-01-16T03:10:22;11.65;;;6.32;;
76094;SDS011;64821;13.710;100.604;2024-01-16T03:11:27;9.20;;;5.10;;
76094;SDS011;64821;13.710;100.604;2024-01-16T03:12:34;12.13;;;6.15;;
76094;SDS011;64821;13.710;100.604;2024-01-16T03:13:38;12.47;;;5.60;;
76094;SDS011;64821;13.710;100.604;2024-01-16T03:14:42;10.80;;;5.53;;
76094;SDS011;64821;13.710;100.604;2024-01-16T03:15:46;10.85;;;5.50;;
76094;SDS011;64821;13.710;100.604;2024-01-16T03:16:50;11.73;;;5.68;;
76094;SDS011;64821;13.710;100.604;2024-01-16T03:17:54;12.98;;;6.40;;
76094;SDS011;64821;13.710;100.604;2024-01-16T03:18:57;14.10;;;6.20;;
76094;SDS011;64821;13.710;100.604;2024-01-16T03:20:01;10.32;;;5.90;;
76094;SDS011;64821;13.710;100.604;2024-01-16T03:21:05;9.73;;;5.47;;
76094;SDS011;64821;13.710;100.604;2024-01-16T03:22:09;10.70;;;5.60;;
76094;SDS011;64821;13.710;100.604;2024-01-16T03:23:13;10.40;;;5.97;;
76094;SDS011;64821;13.710;100.604;2024-01-16T03:24:17;12.23;;;6.10;;
76094;SDS011;64821;13.710;100.604;2024-01-16T03:25:21;12.07;;;6.28;;
76094;SDS011;64821;13.710;100.604;2024-01-16T03:26:26;9.52;;;5.40;;
76094;SDS011;64821;13.710;100.604;2024-01-16T03:27:30;8.90;;;5.18;;
76094;SDS011;64821;13.710;100.604;2024-01-16T03:28:34;10.48;;;5.68;;
76094;SDS011;64821;13.710;100.604;2024-01-16T03:29:38;10.37;;;5.77;;
76094;SDS011;64821;13.710;100.604;2024-01-16T03:30:42;10.30;;;6.05;;
76094;SDS011;64821;13.710;100.604;2024-01-16T03:31:46;12.02;;;6.53;;
76094;SDS011;64821;13.710;100.604;2024-01-16T03:32:50;9.73;;;5.78;;
76094;SDS011;64821;13.710;100.604;2024-01-16T03:33:53;11.68;;;5.93;;
76094;SDS011;64821;13.710;100.604;2024-01-16T03:34:57;12.60;;;6.07;;
76094;SDS011;64821;13.710;100.604;2024-01-16T03:36:01;10.20;;;5.78;;
76094;SDS011;64821;13.710;100.604;2024-01-16T03:37:05;10.30;;;5.70;;
76094;SDS011;64821;13.710;100.604;2024-01-16T03:38:09;11.52;;;5.93;;
76094;SDS011;64821;13.710;100.604;2024-01-16T03:39:12;10.65;;;5.70;;
76094;SDS011;64821;13.710;100.604;2024-01-16T03:40:16;12.40;;;5.90;;
76094;SDS011;64821;13.710;100.604;2024-01-16T03:41:20;11.48;;;5.93;;
76094;SDS011;64821;13.710;100.604;2024-01-16T03:42:26;10.77;;;6.57;;
76094;SDS011;64821;13.710;100.604;2024-01-16T03:43:29;12.38;;;6.10;;
76094;SDS011;64821;13.710;100.604;2024-01-16T03:44:33;12.05;;;5.72;;
76094;SDS011;64821;13.710;100.604;2024-01-16T03:45:41;10.57;;;6.10;;
76094;SDS011;64821;13.710;100.604;2024-01-16T03:46:45;10.95;;;6.20;;
76094;SDS011;64821;13.710;100.604;2024-01-16T03:47:49;10.40;;;5.88;;
76094;SDS011;64821;13.710;100.604;2024-01-16T03:48:53;13.23;;;6.68;;
76094;SDS011;64821;13.710;100.604;2024-01-16T03:49:57;10.75;;;5.75;;
76094;SDS011;64821;13.710;100.604;2024-01-16T03:51:01;13.17;;;6.70;;
76094;SDS011;64821;13.710;100.604;2024-01-16T03:52:05;10.88;;;5.80;;
76094;SDS011;64821;13.710;100.604;2024-01-16T03:53:09;10.63;;;5.78;;
76094;SDS011;64821;13.710;100.604;2024-01-16T03:54:12;11.38;;;6.07;;
76094;SDS011;64821;13.710;100.604;2024-01-16T03:55:16;11.13;;;5.82;;
76094;SDS011;64821;13.710;100.604;2024-01-16T03:56:20;11.33;;;6.00;;
76094;SDS011;64821;13.710;100.604;2024-01-16T03:57:26;9.35;;;5.68;;
76094;SDS011;64821;13.710;100.604;2024-01-16T03:58:30;11.40;;;5.75;;
76094;SDS011;64821;13.710;100.604;2024-01-16T03:59:36;12.15;;;6.20;;
76094;SDS011;64821;13.710;100.604;2024-01-16T04:00:40;10.90;;;5.75;;
76094;SDS011;64821;13.710;100.604;2024-01-16T04:01:44;13.87;;;6.10;;
76094;SDS011;64821;13.710;100.604;2024-01-16T04:02:48;13.25;;;5.85;;
76094;SDS011;64821;13.710;100.604;2024-01-16T04:03:51;10.93;;;6.00;;
76094;SDS011;64821;13.710;100.604;2024-01-16T04:04:55;12.10;;;6.28;;
76094;SDS011;64821;13.710;100.604;2024-01-16T04:05:59;9.95;;;5.65;;
76094;SDS011;64821;13.710;100.604;2024-01-16T04:07:03;10.70;;;6.33;;
76094;SDS011;64821;13.710;100.604;2024-01-16T04:08:07;10.82;;;6.28;;
76094;SDS011;64821;13.710;100.604;2024-01-16T04:09:11;10.38;;;6.00;;
76094;SDS011;64821;13.710;100.604;2024-01-16T04:10:15;11.50;;;6.50;;
76094;SDS011;64821;13.710;100.604;2024-01-16T04:11:19;11.45;;;6.80;;
76094;SDS011;64821;13.710;100.604;2024-01-16T04:12:24;12.97;;;6.83;;
76094;SDS011;64821;13.710;100.604;2024-01-16T04:13:29;11.05;;;5.38;;
76094;SDS011;64821;13.710;100.604;2024-01-16T04:14:33;10.48;;;6.13;;
76094;SDS011;64821;13.710;100.604;2024-01-16T04:15:37;9.65;;;5.72;;
76094;SDS011;64821;13.710;100.604;2024-01-16T04:16:41;11.95;;;6.20;;
76094;SDS011;64821;13.710;100.604;2024-01-16T04:17:45;9.93;;;5.80;;
76094;SDS011;64821;13.710;100.604;2024-01-16T04:18:49;10.80;;;6.22;;
76094;SDS011;64821;13.710;100.604;2024-01-16T04:19:53;10.65;;;6.28;;
76094;SDS011;64821;13.710;100.604;2024-01-16T04:20:57;10.48;;;6.20;;
76094;SDS011;64821;13.710;100.604;2024-01-16T04:22:01;11.90;;;6.70;;
76094;SDS011;64821;13.710;100.604;2024-01-16T04:23:05;10.10;;;5.80;;
76094;SDS011;64821;13.710;100.604;2024-01-16T04:24:09;10.07;;;6.00;;
76094;SDS011;64821;13.710;100.604;2024-01-16T04:25:13;11.18;;;6.30;;
76094;SDS011;64821;13.710;100.604;2024-01-16T04:26:16;11.85;;;6.65;;
76094;SDS011;64821;13.710;100.604;2024-01-16T04:27:20;9.98;;;6.32;;
76094;SDS011;64821;13.710;100.604;2024-01-16T04:28:26;12.03;;;6.27;;
76094;SDS011;64821;13.710;100.604;2024-01-16T04:29:30;10.32;;;6.60;;
76094;SDS011;64821;13.710;100.604;2024-01-16T04:30:33;12.73;;;6.65;;
76094;SDS011;64821;13.710;100.604;2024-01-16T04:31:39;12.70;;;6.47;;
76094;SDS011;64821;13.710;100.604;2024-01-16T04:32:42;10.65;;;6.10;;
76094;SDS011;64821;13.710;100.604;2024-01-16T04:33:47;10.47;;;6.10;;
76094;SDS011;64821;13.710;100.604;2024-01-16T04:34:51;10.75;;;6.18;;
76094;SDS011;64821;13.710;100.604;2024-01-16T04:35:55;10.55;;;6.10;;
76094;SDS011;64821;13.710;100.604;2024-01-16T04:36:59;10.70;;;6.10;;
76094;SDS011;64821;13.710;100.604;2024-01-16T04:38:03;11.38;;;6.20;;
76094;SDS011;64821;13.710;100.604;2024-01-16T04:39:06;12.17;;;6.73;;
76094;SDS011;64821;13.710;100.604;2024-01-16T04:40:10;11.50;;;6.20;;
76094;SDS011;64821;13.710;100.604;2024-01-16T04:41:17;10.95;;;5.55;;
76094;SDS011;64821;13.710;100.604;2024-01-16T04:42:21;10.57;;;6.22;;
76094;SDS011;64821;13.710;100.604;2024-01-16T04:43:26;10.77;;;6.60;;
76094;SDS011;64821;13.710;100.604;2024-01-16T04:44:30;9.57;;;6.00;;
76094;SDS011;64821;13.710;100.604;2024-01-16T04:45:34;9.45;;;6.13;;
76094;SDS011;64821;13.710;100.604;2024-01-16T04:46:38;11.90;;;6.72;;
76094;SDS011;64821;13.710;100.604;2024-01-16T04:47:42;11.02;;;6.43;;
76094;SDS011;64821;13.710;100.604;2024-01-16T04:48:46;10.43;;;6.15;;
76094;SDS011;64821;13.710;100.604;2024-01-16T04:49:50;11.27;;;6.27;;
76094;SDS011;64821;13.710;100.604;2024-01-16T04:50:53;10.60;;;6.53;;
76094;SDS011;64821;13.710;100.604;2024-01-16T04:51:57;9.82;;;6.20;;
76094;SDS011;64821;13.710;100.604;2024-01-16T04:53:01;10.45;;;6.50;;
76094;SDS011;64821;13.710;100.604;2024-01-16T04:54:05;11.07;;;6.38;;
76094;SDS011;64821;13.710;100.604;2024-01-16T04:55:09;13.83;;;6.20;;
76094;SDS011;64821;13.710;100.604;2024-01-16T04:56:13;13.77;;;6.32;;
76094;SDS011;64821;13.710;100.604;2024-01-16T04:57:17;11.73;;;6.10;;
76094;SDS011;64821;13.710;100.604;2024-01-16T04:58:21;9.43;;;5.80;;
76094;SDS011;64821;13.710;100.604;2024-01-16T04:59:26;11.73;;;6.07;;
76094;SDS011;64821;13.710;100.604;2024-01-16T05:00:30;13.10;;;5.67;;
76094;SDS011;64821;13.710;100.604;2024-01-16T05:01:34;10.07;;;5.57;;
76094;SDS011;64821;13.710;100.604;2024-01-16T05:02:37;10.93;;;6.30;;
76094;SDS011;64821;13.710;100.604;2024-01-16T05:03:41;11.82;;;6.20;;
76094;SDS011;64821;13.710;100.604;2024-01-16T05:04:45;10.48;;;6.15;;
76094;SDS011;64821;13.710;100.604;2024-01-16T05:05:49;11.10;;;6.10;;
76094;SDS011;64821;13.710;100.604;2024-01-16T05:06:53;10.43;;;6.00;;
76094;SDS011;64821;13.710;100.604;2024-01-16T05:07:56;10.00;;;6.18;;
76094;SDS011;64821;13.710;100.604;2024-01-16T05:09:03;10.20;;;5.93;;
76094;SDS011;64821;13.710;100.604;2024-01-16T05:10:09;10.45;;;6.20;;
76094;SDS011;64821;13.710;100.604;2024-01-16T05:11:13;12.23;;;5.97;;
76094;SDS011;64821;13.710;100.604;2024-01-16T05:12:17;11.30;;;6.47;;
76094;SDS011;64821;13.710;100.604;2024-01-16T05:13:21;10.77;;;6.18;;
76094;SDS011;64821;13.710;100.604;2024-01-16T05:14:26;13.38;;;5.90;;
76094;SDS011;64821;13.710;100.604;2024-01-16T05:15:30;10.05;;;6.20;;
76094;SDS011;64821;13.710;100.604;2024-01-16T05:16:34;9.77;;;6.10;;
76094;SDS011;64821;13.710;100.604;2024-01-16T05:17:38;9.38;;;5.90;;
76094;SDS011;64821;13.710;100.604;2024-01-16T05:18:42;11.15;;;5.97;;
76094;SDS011;64821;13.710;100.604;2024-01-16T05:19:47;11.93;;;6.43;;
76094;SDS011;64821;13.710;100.604;2024-01-16T05:20:51;9.93;;;5.70;;
76094;SDS011;64821;13.710;100.604;2024-01-16T05:21:55;9.93;;;5.73;;
76094;SDS011;64821;13.710;100.604;2024-01-16T05:23:01;10.15;;;5.97;;
76094;SDS011;64821;13.710;100.604;2024-01-16T05:24:05;9.85;;;5.55;;
76094;SDS011;64821;13.710;100.604;2024-01-16T05:25:12;9.63;;;5.43;;
76094;SDS011;64821;13.710;100.604;2024-01-16T05:26:16;9.23;;;5.43;;
76094;SDS011;64821;13.710;100.604;2024-01-16T05:27:19;9.87;;;5.60;;
76094;SDS011;64821;13.710;100.604;2024-01-16T05:28:23;11.52;;;6.43;;
76094;SDS011;64821;13.710;100.604;2024-01-16T05:29:29;9.63;;;6.07;;
76094;SDS011;64821;13.710;100.604;2024-01-16T05:30:33;9.90;;;5.95;;
76094;SDS011;64821;13.710;100.604;2024-01-16T05:31:39;11.48;;;5.88;;
76094;SDS011;64821;13.710;100.604;2024-01-16T05:32:43;10.47;;;5.73;;
76094;SDS011;64821;13.710;100.604;2024-01-16T05:33:47;10.90;;;5.93;;
76094;SDS011;64821;13.710;100.604;2024-01-16T05:34:51;10.75;;;5.60;;
76094;SDS011;64821;13.710;100.604;2024-01-16T05:35:57;11.20;;;5.65;;
76094;SDS011;64821;13.710;100.604;2024-01-16T05:37:00;10.40;;;6.70;;
76094;SDS011;64821;13.710;100.604;2024-01-16T05:38:04;10.70;;;6.53;;
76094;SDS011;64821;13.710;100.604;2024-01-16T05:39:08;10.23;;;5.72;;
76094;SDS011;64821;13.710;100.604;2024-01-16T05:40:12;9.35;;;5.60;;
76094;SDS011;64821;13.710;100.604;2024-01-16T05:41:16;10.70;;;5.68;;
76094;SDS011;64821;13.710;100.604;2024-01-16T05:42:20;9.57;;;5.63;;
76094;SDS011;64821;13.710;100.604;2024-01-16T05:43:23;10.73;;;6.00;;
76094;SDS011;64821;13.710;100.604;2024-01-16T05:44:29;10.43;;;5.90;;
76094;SDS011;64821;13.710;100.604;2024-01-16T05:45:33;9.98;;;6.00;;
76094;SDS011;64821;13.710;100.604;2024-01-16T05:46:36;11.10;;;5.82;;
76094;SDS011;64821;13.710;100.604;2024-01-16T05:47:40;9.80;;;6.00;;
76094;SDS011;64821;13.710;100.604;2024-01-16T05:48:44;10.53;;;6.47;;
76094;SDS011;64821;13.710;100.604;2024-01-16T05:49:48;8.48;;;5.25;;
76094;SDS011;64821;13.710;100.604;2024-01-16T05:50:52;9.07;;;5.80;;
76094;SDS011;64821;13.710;100.604;2024-01-16T05:51:56;9.48;;;5.60;;
76094;SDS011;64821;13.710;100.604;2024-01-16T05:53:00;10.70;;;5.47;;
76094;SDS011;64821;13.710;100.604;2024-01-16T05:54:04;10.23;;;5.70;;
76094;SDS011;64821;13.710;100.604;2024-01-16T05:55:08;9.73;;;5.60;;
76094;SDS011;64821;13.710;100.604;2024-01-16T05:56:12;9.95;;;5.70;;
76094;SDS011;64821;13.710;100.604;2024-01-16T05:57:15;11.40;;;5.40;;
76094;SDS011;64821;13.710;100.604;2024-01-16T05:58:19;9.07;;;5.50;;
76094;SDS011;64821;13.710;100.604;2024-01-16T05:59:23;11.07;;;5.67;;
76094;SDS011;64821;13.710;100.604;2024-01-16T06:00:29;11.65;;;6.07;;
76094;SDS011;64821;13.710;100.604;2024-01-16T06:01:32;9.95;;;5.80;;
76094;SDS011;64821;13.710;100.604;2024-01-16T06:02:36;10.82;;;5.70;;
76094;SDS011;64821;13.710;100.604;2024-01-16T06:03:40;10.10;;;6.22;;
76094;SDS011;64821;13.710;100.604;2024-01-16T06:04:44;10.37;;;5.67;;
76094;SDS011;64821;13.710;100.604;2024-01-16T06:05:48;10.50;;;6.50;;
76094;SDS011;64821;13.710;100.604;2024-01-16T06:06:52;12.57;;;6.28;;
76094;SDS011;64821;13.710;100.604;2024-01-16T06:07:56;9.82;;;6.35;;
76094;SDS011;64821;13.710;100.604;2024-01-16T06:09:00;9.80;;;5.50;;
76094;SDS011;64821;13.710;100.604;2024-01-16T06:10:04;11.17;;;5.80;;